sensor_id;sensor_type;location;lat;lon;timestamp;temperature;humidity
17415;DHT22;8825;48.086;16.426;2023-11-19T00:01:17;4.10;71.00
17415;DHT22;8825;48.086;16.426;2023-11-19T00:03:44;4.00;71.10
17415;DHT22;8825;48.086;16.426;2023-11-19T00:06:12;4.00;71.50
17415;DHT22;8825;48.086;16.426;2023-11-19T00:08:39;4.00;72.10
17415;DHT22;8825;48.086;16.426;2023-11-19T00:11:07;4.00;72.00
17415;DHT22;8825;48.086;16.426;2023-11-19T00:13:34;4.00;72.00
17415;DHT22;8825;48.086;16.426;2023-11-19T00:16:02;4.10;72.00
17415;DHT22;8825;48.086;16.426;2023-11-19T00:18:30;4.10;71.90
17415;DHT22;8825;48.086;16.426;2023-11-19T00:20:59;4.10;71.90
17415;DHT22;8825;48.086;16.426;2023-11-19T00:23:26;4.10;71.90
17415;DHT22;8825;48.086;16.426;2023-11-19T00:25:54;4.10;72.00
17415;DHT22;8825;48.086;16.426;2023-11-19T00:28:21;4.00;72.20
17415;DHT22;8825;48.086;16.426;2023-11-19T00:30:50;4.00;72.40
17415;DHT22;8825;48.086;16.426;2023-11-19T00:33:18;4.10;72.40
17415;DHT22;8825;48.086;16.426;2023-11-19T00:35:45;4.20;72.50
17415;DHT22;8825;48.086;16.426;2023-11-19T00:38:13;4.20;72.30
17415;DHT22;8825;48.086;16.426;2023-11-19T00:40:40;4.20;72.20
17415;DHT22;8825;48.086;16.426;2023-11-19T00:43:08;4.30;72.10
17415;DHT22;8825;48.086;16.426;2023-11-19T00:45:35;4.30;72.00
17415;DHT22;8825;48.086;16.426;2023-11-19T00:48:03;4.30;72.10
17415;DHT22;8825;48.086;16.426;2023-11-19T00:50:31;4.30;72.50
17415;DHT22;8825;48.086;16.426;2023-11-19T00:52:59;4.30;72.80
17415;DHT22;8825;48.086;16.426;2023-11-19T00:55:26;4.30;72.90
17415;DHT22;8825;48.086;16.426;2023-11-19T00:57:54;4.30;72.90
17415;DHT22;8825;48.086;16.426;2023-11-19T01:00:23;4.40;73.10
17415;DHT22;8825;48.086;16.426;2023-11-19T01:02:52;4.40;73.10
17415;DHT22;8825;48.086;16.426;2023-11-19T01:05:20;4.40;73.20
17415;DHT22;8825;48.086;16.426;2023-11-19T01:07:51;4.50;73.20
17415;DHT22;8825;48.086;16.426;2023-11-19T01:10:20;4.50;73.20
17415;DHT22;8825;48.086;16.426;2023-11-19T01:12:48;4.50;74.30
17415;DHT22;8825;48.086;16.426;2023-11-19T01:15:15;4.50;73.40
17415;DHT22;8825;48.086;16.426;2023-11-19T01:17:44;4.60;73.40
17415;DHT22;8825;48.086;16.426;2023-11-19T01:20:12;4.60;73.10
17415;DHT22;8825;48.086;16.426;2023-11-19T01:22:40;4.70;73.10
17415;DHT22;8825;48.086;16.426;2023-11-19T01:25:07;4.70;72.90
17415;DHT22;8825;48.086;16.426;2023-11-19T01:27:35;4.80;72.80
17415;DHT22;8825;48.086;16.426;2023-11-19T01:30:03;4.90;72.70
17415;DHT22;8825;48.086;16.426;2023-11-19T01:32:32;4.90;72.50
17415;DHT22;8825;48.086;16.426;2023-11-19T01:34:59;5.00;72.40
17415;DHT22;8825;48.086;16.426;2023-11-19T01:37:27;5.00;72.20
17415;DHT22;8825;48.086;16.426;2023-11-19T01:39:55;5.00;72.30
17415;DHT22;8825;48.086;16.426;2023-11-19T01:42:22;5.00;72.30
17415;DHT22;8825;48.086;16.426;2023-11-19T01:45:01;5.00;72.20
17415;DHT22;8825;48.086;16.426;2023-11-19T01:47:30;5.10;72.10
17415;DHT22;8825;48.086;16.426;2023-11-19T01:49:59;5.10;71.90
17415;DHT22;8825;48.086;16.426;2023-11-19T01:52:27;5.10;71.70
17415;DHT22;8825;48.086;16.426;2023-11-19T01:54:55;5.20;71.70
17415;DHT22;8825;48.086;16.426;2023-11-19T01:57:23;5.20;71.70
17415;DHT22;8825;48.086;16.426;2023-11-19T01:59:52;5.20;71.70
17415;DHT22;8825;48.086;16.426;2023-11-19T02:02:20;5.20;71.60
17415;DHT22;8825;48.086;16.426;2023-11-19T02:04:50;5.20;71.60
17415;DHT22;8825;48.086;16.426;2023-11-19T02:07:18;5.20;71.60
17415;DHT22;8825;48.086;16.426;2023-11-19T02:09:46;5.20;71.50
17415;DHT22;8825;48.086;16.426;2023-11-19T02:12:14;5.30;71.50
17415;DHT22;8825;48.086;16.426;2023-11-19T02:14:42;5.30;71.40
17415;DHT22;8825;48.086;16.426;2023-11-19T02:17:29;5.20;71.40
17415;DHT22;8825;48.086;16.426;2023-11-19T02:20:02;5.20;71.40
17415;DHT22;8825;48.086;16.426;2023-11-19T02:22:30;5.30;71.40
17415;DHT22;8825;48.086;16.426;2023-11-19T02:24:59;5.30;71.30
17415;DHT22;8825;48.086;16.426;2023-11-19T02:27:53;5.40;71.40
17415;DHT22;8825;48.086;16.426;2023-11-19T02:30:22;5.40;71.10
17415;DHT22;8825;48.086;16.426;2023-11-19T02:32:56;5.50;70.90
17415;DHT22;8825;48.086;16.426;2023-11-19T02:35:25;5.50;70.80
17415;DHT22;8825;48.086;16.426;2023-11-19T02:37:56;5.40;70.60
17415;DHT22;8825;48.086;16.426;2023-11-19T02:40:23;5.50;70.80
17415;DHT22;8825;48.086;16.426;2023-11-19T02:42:54;5.50;70.60
17415;DHT22;8825;48.086;16.426;2023-11-19T02:45:27;5.50;70.60
17415;DHT22;8825;48.086;16.426;2023-11-19T02:47:56;5.50;70.70
17415;DHT22;8825;48.086;16.426;2023-11-19T02:50:24;5.50;70.80
17415;DHT22;8825;48.086;16.426;2023-11-19T02:52:54;5.50;71.00
17415;DHT22;8825;48.086;16.426;2023-11-19T02:55:23;5.50;71.20
17415;DHT22;8825;48.086;16.426;2023-11-19T02:57:52;5.50;71.50
17415;DHT22;8825;48.086;16.426;2023-11-19T03:00:20;5.50;71.60
17415;DHT22;8825;48.086;16.426;2023-11-19T03:02:53;5.50;71.70
17415;DHT22;8825;48.086;16.426;2023-11-19T03:05:22;5.50;71.70
17415;DHT22;8825;48.086;16.426;2023-11-19T03:07:50;5.60;71.90
17415;DHT22;8825;48.086;16.426;2023-11-19T03:10:18;5.60;72.20
17415;DHT22;8825;48.086;16.426;2023-11-19T03:12:46;5.60;72.30
17415;DHT22;8825;48.086;16.426;2023-11-19T03:15:13;5.60;72.40
17415;DHT22;8825;48.086;16.426;2023-11-19T03:17:41;5.60;72.40
17415;DHT22;8825;48.086;16.426;2023-11-19T03:20:12;5.60;72.50
17415;DHT22;8825;48.086;16.426;2023-11-19T03:22:42;5.70;72.50
17415;DHT22;8825;48.086;16.426;2023-11-19T03:25:10;5.70;72.50
17415;DHT22;8825;48.086;16.426;2023-11-19T03:27:39;5.70;72.70
17415;DHT22;8825;48.086;16.426;2023-11-19T03:30:09;5.80;72.90
17415;DHT22;8825;48.086;16.426;2023-11-19T03:32:37;5.80;73.00
17415;DHT22;8825;48.086;16.426;2023-11-19T03:35:06;5.90;73.10
17415;DHT22;8825;48.086;16.426;2023-11-19T03:37:35;5.90;73.00
17415;DHT22;8825;48.086;16.426;2023-11-19T03:40:03;5.90;73.00
17415;DHT22;8825;48.086;16.426;2023-11-19T03:42:31;5.90;73.00
17415;DHT22;8825;48.086;16.426;2023-11-19T03:44:59;6.00;73.10
17415;DHT22;8825;48.086;16.426;2023-11-19T03:47:26;5.90;73.10
17415;DHT22;8825;48.086;16.426;2023-11-19T03:49:54;5.90;73.10
17415;DHT22;8825;48.086;16.426;2023-11-19T03:52:21;5.90;73.40
17415;DHT22;8825;48.086;16.426;2023-11-19T03:54:49;5.90;73.50
17415;DHT22;8825;48.086;16.426;2023-11-19T03:57:16;5.90;73.50
17415;DHT22;8825;48.086;16.426;2023-11-19T03:59:45;5.90;73.50
17415;DHT22;8825;48.086;16.426;2023-11-19T04:02:12;5.90;73.60
17415;DHT22;8825;48.086;16.426;2023-11-19T04:04:40;5.90;73.80
17415;DHT22;8825;48.086;16.426;2023-11-19T04:07:07;5.90;73.80
17415;DHT22;8825;48.086;16.426;2023-11-19T04:09:35;5.90;74.00
17415;DHT22;8825;48.086;16.426;2023-11-19T04:12:04;5.90;74.00
17415;DHT22;8825;48.086;16.426;2023-11-19T04:14:32;6.00;74.20
17415;DHT22;8825;48.086;16.426;2023-11-19T04:16:59;6.00;74.10
17415;DHT22;8825;48.086;16.426;2023-11-19T04:19:27;6.00;74.00
17415;DHT22;8825;48.086;16.426;2023-11-19T04:21:55;6.00;74.00
17415;DHT22;8825;48.086;16.426;2023-11-19T04:24:22;6.00;73.90
17415;DHT22;8825;48.086;16.426;2023-11-19T04:26:50;6.00;74.00
17415;DHT22;8825;48.086;16.426;2023-11-19T04:29:19;6.10;74.10
17415;DHT22;8825;48.086;16.426;2023-11-19T04:31:46;6.10;74.00
17415;DHT22;8825;48.086;16.426;2023-11-19T04:34:14;6.10;74.30
17415;DHT22;8825;48.086;16.426;2023-11-19T04:36:41;6.10;74.00
17415;DHT22;8825;48.086;16.426;2023-11-19T04:39:10;6.10;74.10
17415;DHT22;8825;48.086;16.426;2023-11-19T04:41:52;6.10;74.00
17415;DHT22;8825;48.086;16.426;2023-11-19T04:44:19;6.10;74.10
17415;DHT22;8825;48.086;16.426;2023-11-19T04:46:47;6.10;74.20
17415;DHT22;8825;48.086;16.426;2023-11-19T04:49:15;6.10;74.10
17415;DHT22;8825;48.086;16.426;2023-11-19T04:51:45;6.10;74.30
17415;DHT22;8825;48.086;16.426;2023-11-19T04:54:17;6.10;74.10
17415;DHT22;8825;48.086;16.426;2023-11-19T04:56:48;6.10;74.20
17415;DHT22;8825;48.086;16.426;2023-11-19T04:59:15;6.10;74.30
17415;DHT22;8825;48.086;16.426;2023-11-19T05:01:47;6.10;74.20
17415;DHT22;8825;48.086;16.426;2023-11-19T05:04:17;6.10;74.20
17415;DHT22;8825;48.086;16.426;2023-11-19T05:06:45;6.10;74.10
17415;DHT22;8825;48.086;16.426;2023-11-19T05:09:12;6.10;74.30
17415;DHT22;8825;48.086;16.426;2023-11-19T05:11:40;6.10;74.40
17415;DHT22;8825;48.086;16.426;2023-11-19T05:14:07;6.10;74.40
17415;DHT22;8825;48.086;16.426;2023-11-19T05:16:35;6.10;74.50
17415;DHT22;8825;48.086;16.426;2023-11-19T05:19:03;6.10;74.50
17415;DHT22;8825;48.086;16.426;2023-11-19T05:21:30;6.10;74.50
17415;DHT22;8825;48.086;16.426;2023-11-19T05:23:58;6.10;74.40
17415;DHT22;8825;48.086;16.426;2023-11-19T05:26:26;6.10;74.50
17415;DHT22;8825;48.086;16.426;2023-11-19T05:28:53;6.10;74.50
17415;DHT22;8825;48.086;16.426;2023-11-19T05:31:21;6.10;74.60
17415;DHT22;8825;48.086;16.426;2023-11-19T05:33:49;6.10;74.60
17415;DHT22;8825;48.086;16.426;2023-11-19T05:36:16;6.10;74.50
17415;DHT22;8825;48.086;16.426;2023-11-19T05:38:44;6.10;74.50
17415;DHT22;8825;48.086;16.426;2023-11-19T05:41:11;6.10;74.50
17415;DHT22;8825;48.086;16.426;2023-11-19T05:43:39;6.10;74.50
17415;DHT22;8825;48.086;16.426;2023-11-19T05:46:08;6.10;74.50
17415;DHT22;8825;48.086;16.426;2023-11-19T05:48:35;6.20;74.70
17415;DHT22;8825;48.086;16.426;2023-11-19T05:51:03;6.20;74.70
17415;DHT22;8825;48.086;16.426;2023-11-19T05:53:32;6.20;74.60
17415;DHT22;8825;48.086;16.426;2023-11-19T05:55:59;6.20;74.70
17415;DHT22;8825;48.086;16.426;2023-11-19T05:58:28;6.20;74.70
17415;DHT22;8825;48.086;16.426;2023-11-19T06:00:57;6.20;74.70
17415;DHT22;8825;48.086;16.426;2023-11-19T06:03:26;6.20;74.70
17415;DHT22;8825;48.086;16.426;2023-11-19T06:05:54;6.20;74.70
17415;DHT22;8825;48.086;16.426;2023-11-19T06:08:22;6.20;74.70
17415;DHT22;8825;48.086;16.426;2023-11-19T06:10:49;6.30;74.80
17415;DHT22;8825;48.086;16.426;2023-11-19T06:13:17;6.20;74.70
17415;DHT22;8825;48.086;16.426;2023-11-19T06:15:46;6.30;74.70
17415;DHT22;8825;48.086;16.426;2023-11-19T06:18:13;6.30;74.70
17415;DHT22;8825;48.086;16.426;2023-11-19T06:20:41;6.30;74.80
17415;DHT22;8825;48.086;16.426;2023-11-19T06:23:08;6.30;74.90
17415;DHT22;8825;48.086;16.426;2023-11-19T06:25:36;6.30;75.00
17415;DHT22;8825;48.086;16.426;2023-11-19T06:28:04;6.30;74.80
17415;DHT22;8825;48.086;16.426;2023-11-19T06:30:31;6.30;74.80
17415;DHT22;8825;48.086;16.426;2023-11-19T06:32:59;6.30;74.80
17415;DHT22;8825;48.086;16.426;2023-11-19T06:35:26;6.20;74.70
17415;DHT22;8825;48.086;16.426;2023-11-19T06:37:56;6.30;74.80
17415;DHT22;8825;48.086;16.426;2023-11-19T06:40:23;6.30;74.80
17415;DHT22;8825;48.086;16.426;2023-11-19T06:42:51;6.20;74.70
17415;DHT22;8825;48.086;16.426;2023-11-19T06:45:19;6.30;74.80
17415;DHT22;8825;48.086;16.426;2023-11-19T06:47:46;6.30;74.70
17415;DHT22;8825;48.086;16.426;2023-11-19T06:50:15;6.20;74.60
17415;DHT22;8825;48.086;16.426;2023-11-19T06:52:43;6.20;74.60
17415;DHT22;8825;48.086;16.426;2023-11-19T06:55:11;6.20;74.80
17415;DHT22;8825;48.086;16.426;2023-11-19T06:57:39;6.10;74.80
17415;DHT22;8825;48.086;16.426;2023-11-19T07:00:07;6.20;74.50
17415;DHT22;8825;48.086;16.426;2023-11-19T07:02:35;6.20;75.00
17415;DHT22;8825;48.086;16.426;2023-11-19T07:05:02;6.20;75.00
17415;DHT22;8825;48.086;16.426;2023-11-19T07:07:32;6.20;75.00
17415;DHT22;8825;48.086;16.426;2023-11-19T07:10:00;6.30;75.20
17415;DHT22;8825;48.086;16.426;2023-11-19T07:12:29;6.30;75.20
17415;DHT22;8825;48.086;16.426;2023-11-19T07:14:56;6.20;75.10
17415;DHT22;8825;48.086;16.426;2023-11-19T07:17:24;6.20;75.20
17415;DHT22;8825;48.086;16.426;2023-11-19T07:19:51;6.20;75.30
17415;DHT22;8825;48.086;16.426;2023-11-19T07:22:19;6.20;75.30
17415;DHT22;8825;48.086;16.426;2023-11-19T07:24:47;6.20;75.30
17415;DHT22;8825;48.086;16.426;2023-11-19T07:27:15;6.20;75.60
17415;DHT22;8825;48.086;16.426;2023-11-19T07:29:44;6.30;75.80
17415;DHT22;8825;48.086;16.426;2023-11-19T07:32:11;6.30;75.80
17415;DHT22;8825;48.086;16.426;2023-11-19T07:34:40;6.20;75.70
17415;DHT22;8825;48.086;16.426;2023-11-19T07:37:07;6.20;75.70
17415;DHT22;8825;48.086;16.426;2023-11-19T07:39:35;6.30;75.70
17415;DHT22;8825;48.086;16.426;2023-11-19T07:42:04;6.30;75.90
17415;DHT22;8825;48.086;16.426;2023-11-19T07:44:33;6.30;75.90
17415;DHT22;8825;48.086;16.426;2023-11-19T07:47:00;6.40;76.00
17415;DHT22;8825;48.086;16.426;2023-11-19T07:49:28;6.40;76.10
17415;DHT22;8825;48.086;16.426;2023-11-19T07:51:57;6.40;76.10
17415;DHT22;8825;48.086;16.426;2023-11-19T07:54:24;6.50;76.20
17415;DHT22;8825;48.086;16.426;2023-11-19T07:56:52;6.50;76.30
17415;DHT22;8825;48.086;16.426;2023-11-19T07:59:19;6.50;76.30
17415;DHT22;8825;48.086;16.426;2023-11-19T08:01:47;6.60;76.30
17415;DHT22;8825;48.086;16.426;2023-11-19T08:04:15;6.50;76.20
17415;DHT22;8825;48.086;16.426;2023-11-19T08:06:42;6.50;77.10
17415;DHT22;8825;48.086;16.426;2023-11-19T08:09:10;6.60;76.40
17415;DHT22;8825;48.086;16.426;2023-11-19T08:11:41;6.70;76.40
17415;DHT22;8825;48.086;16.426;2023-11-19T08:14:09;6.70;77.40
17415;DHT22;8825;48.086;16.426;2023-11-19T08:16:38;6.70;76.50
17415;DHT22;8825;48.086;16.426;2023-11-19T08:19:06;6.80;76.60
17415;DHT22;8825;48.086;16.426;2023-11-19T08:21:35;6.90;76.60
17415;DHT22;8825;48.086;16.426;2023-11-19T08:24:02;7.00;77.40
17415;DHT22;8825;48.086;16.426;2023-11-19T08:26:30;7.00;76.60
17415;DHT22;8825;48.086;16.426;2023-11-19T08:28:57;7.10;76.60
17415;DHT22;8825;48.086;16.426;2023-11-19T08:31:25;7.10;76.60
17415;DHT22;8825;48.086;16.426;2023-11-19T08:33:53;7.10;76.60
17415;DHT22;8825;48.086;16.426;2023-11-19T08:36:20;7.10;76.70
17415;DHT22;8825;48.086;16.426;2023-11-19T08:38:48;7.10;76.50
17415;DHT22;8825;48.086;16.426;2023-11-19T08:41:16;7.10;76.50
17415;DHT22;8825;48.086;16.426;2023-11-19T08:43:45;7.10;76.60
17415;DHT22;8825;48.086;16.426;2023-11-19T08:46:13;7.10;76.60
17415;DHT22;8825;48.086;16.426;2023-11-19T08:48:40;7.10;76.70
17415;DHT22;8825;48.086;16.426;2023-11-19T08:51:08;7.20;76.90
17415;DHT22;8825;48.086;16.426;2023-11-19T08:53:35;7.20;76.90
17415;DHT22;8825;48.086;16.426;2023-11-19T08:56:03;7.30;77.00
17415;DHT22;8825;48.086;16.426;2023-11-19T08:58:31;7.40;77.20
17415;DHT22;8825;48.086;16.426;2023-11-19T09:00:59;7.60;77.40
17415;DHT22;8825;48.086;16.426;2023-11-19T09:03:27;7.70;77.00
17415;DHT22;8825;48.086;16.426;2023-11-19T09:05:56;7.80;76.40
17415;DHT22;8825;48.086;16.426;2023-11-19T09:08:23;7.80;76.30
17415;DHT22;8825;48.086;16.426;2023-11-19T09:10:51;7.80;76.30
17415;DHT22;8825;48.086;16.426;2023-11-19T09:13:19;7.90;76.40
17415;DHT22;8825;48.086;16.426;2023-11-19T09:15:46;8.10;76.30
17415;DHT22;8825;48.086;16.426;2023-11-19T09:18:14;8.10;75.80
17415;DHT22;8825;48.086;16.426;2023-11-19T09:20:41;8.10;75.80
17415;DHT22;8825;48.086;16.426;2023-11-19T09:23:09;8.20;75.80
17415;DHT22;8825;48.086;16.426;2023-11-19T09:25:36;8.20;75.60
17415;DHT22;8825;48.086;16.426;2023-11-19T09:28:04;8.30;75.50
17415;DHT22;8825;48.086;16.426;2023-11-19T09:30:31;8.30;75.20
17415;DHT22;8825;48.086;16.426;2023-11-19T09:33:00;8.30;75.00
17415;DHT22;8825;48.086;16.426;2023-11-19T09:35:27;8.30;75.00
17415;DHT22;8825;48.086;16.426;2023-11-19T09:37:55;8.30;74.70
17415;DHT22;8825;48.086;16.426;2023-11-19T09:40:23;8.20;74.80
17415;DHT22;8825;48.086;16.426;2023-11-19T09:42:51;8.20;74.80
17415;DHT22;8825;48.086;16.426;2023-11-19T09:45:20;8.20;74.90
17415;DHT22;8825;48.086;16.426;2023-11-19T09:47:50;8.10;74.80
17415;DHT22;8825;48.086;16.426;2023-11-19T09:50:20;8.10;76.00
17415;DHT22;8825;48.086;16.426;2023-11-19T09:52:48;8.20;75.40
17415;DHT22;8825;48.086;16.426;2023-11-19T09:55:15;8.20;74.60
17415;DHT22;8825;48.086;16.426;2023-11-19T09:57:43;8.20;74.50
17415;DHT22;8825;48.086;16.426;2023-11-19T10:00:13;8.10;74.70
17415;DHT22;8825;48.086;16.426;2023-11-19T10:02:41;8.10;74.80
17415;DHT22;8825;48.086;16.426;2023-11-19T10:05:12;8.10;74.50
17415;DHT22;8825;48.086;16.426;2023-11-19T10:07:41;8.10;74.90
17415;DHT22;8825;48.086;16.426;2023-11-19T10:10:09;8.10;75.60
17415;DHT22;8825;48.086;16.426;2023-11-19T10:12:39;8.20;74.80
17415;DHT22;8825;48.086;16.426;2023-11-19T10:15:08;8.20;74.70
17415;DHT22;8825;48.086;16.426;2023-11-19T10:17:37;8.10;74.70
17415;DHT22;8825;48.086;16.426;2023-11-19T10:20:06;8.20;74.80
17415;DHT22;8825;48.086;16.426;2023-11-19T10:22:40;8.20;74.70
17415;DHT22;8825;48.086;16.426;2023-11-19T10:25:18;8.10;74.60
17415;DHT22;8825;48.086;16.426;2023-11-19T10:27:35;8.10;74.80
17415;DHT22;8825;48.086;16.426;2023-11-19T10:30:03;8.00;74.80
17415;DHT22;8825;48.086;16.426;2023-11-19T10:32:31;8.00;75.10
17415;DHT22;8825;48.086;16.426;2023-11-19T10:35:05;8.00;75.10
17415;DHT22;8825;48.086;16.426;2023-11-19T10:37:33;8.00;75.00
17415;DHT22;8825;48.086;16.426;2023-11-19T10:40:03;8.00;75.00
17415;DHT22;8825;48.086;16.426;2023-11-19T10:42:35;8.10;75.00
17415;DHT22;8825;48.086;16.426;2023-11-19T10:45:03;8.00;74.80
17415;DHT22;8825;48.086;16.426;2023-11-19T10:47:32;7.90;75.00
17415;DHT22;8825;48.086;16.426;2023-11-19T10:50:01;7.90;75.40
17415;DHT22;8825;48.086;16.426;2023-11-19T10:52:28;8.00;75.30
17415;DHT22;8825;48.086;16.426;2023-11-19T10:54:58;8.00;75.40
17415;DHT22;8825;48.086;16.426;2023-11-19T10:57:30;8.00;75.40
17415;DHT22;8825;48.086;16.426;2023-11-19T11:00:01;7.90;75.70
17415;DHT22;8825;48.086;16.426;2023-11-19T11:02:33;7.80;76.00
17415;DHT22;8825;48.086;16.426;2023-11-19T11:05:01;7.90;76.10
17415;DHT22;8825;48.086;16.426;2023-11-19T11:07:31;7.80;76.20
17415;DHT22;8825;48.086;16.426;2023-11-19T11:10:01;7.70;76.70
17415;DHT22;8825;48.086;16.426;2023-11-19T11:12:31;7.70;77.00
17415;DHT22;8825;48.086;16.426;2023-11-19T11:15:01;7.60;77.20
17415;DHT22;8825;48.086;16.426;2023-11-19T11:17:32;7.60;77.40
17415;DHT22;8825;48.086;16.426;2023-11-19T11:20:01;7.70;77.50
17415;DHT22;8825;48.086;16.426;2023-11-19T11:22:32;7.70;77.30
17415;DHT22;8825;48.086;16.426;2023-11-19T11:33:28;7.70;77.40
17415;DHT22;8825;48.086;16.426;2023-11-19T11:36:02;7.80;77.50
17415;DHT22;8825;48.086;16.426;2023-11-19T11:38:29;7.80;77.50
17415;DHT22;8825;48.086;16.426;2023-11-19T11:43:50;7.90;77.20
17415;DHT22;8825;48.086;16.426;2023-11-19T11:49:05;7.90;77.30
17415;DHT22;8825;48.086;16.426;2023-11-19T11:57:12;7.90;78.00
17415;DHT22;8825;48.086;16.426;2023-11-19T12:02:21;8.10;77.70
17415;DHT22;8825;48.086;16.426;2023-11-19T12:04:51;8.20;77.60
17415;DHT22;8825;48.086;16.426;2023-11-19T12:07:20;8.20;77.60
17415;DHT22;8825;48.086;16.426;2023-11-19T12:09:53;8.30;77.50
17415;DHT22;8825;48.086;16.426;2023-11-19T12:12:25;8.30;77.40
17415;DHT22;8825;48.086;16.426;2023-11-19T12:15:07;8.40;77.30
17415;DHT22;8825;48.086;16.426;2023-11-19T12:18:04;8.50;77.20
17415;DHT22;8825;48.086;16.426;2023-11-19T12:20:12;8.50;76.90
17415;DHT22;8825;48.086;16.426;2023-11-19T12:22:41;8.60;76.90
17415;DHT22;8825;48.086;16.426;2023-11-19T12:25:11;8.60;76.70
17415;DHT22;8825;48.086;16.426;2023-11-19T12:27:48;8.60;76.60
17415;DHT22;8825;48.086;16.426;2023-11-19T12:30:23;8.70;76.50
17415;DHT22;8825;48.086;16.426;2023-11-19T12:32:53;8.70;76.40
17415;DHT22;8825;48.086;16.426;2023-11-19T12:35:20;8.70;76.30
17415;DHT22;8825;48.086;16.426;2023-11-19T12:37:50;8.60;76.00
17415;DHT22;8825;48.086;16.426;2023-11-19T12:40:19;8.60;75.90
17415;DHT22;8825;48.086;16.426;2023-11-19T12:42:48;8.50;75.90
17415;DHT22;8825;48.086;16.426;2023-11-19T12:45:16;8.50;76.00
17415;DHT22;8825;48.086;16.426;2023-11-19T12:47:46;8.40;76.30
17415;DHT22;8825;48.086;16.426;2023-11-19T12:50:16;8.40;76.60
17415;DHT22;8825;48.086;16.426;2023-11-19T12:52:57;8.40;76.80
17415;DHT22;8825;48.086;16.426;2023-11-19T12:55:29;8.40;77.00
17415;DHT22;8825;48.086;16.426;2023-11-19T12:57:59;8.40;76.90
17415;DHT22;8825;48.086;16.426;2023-11-19T13:00:27;8.50;77.00
17415;DHT22;8825;48.086;16.426;2023-11-19T13:02:56;8.50;76.80
17415;DHT22;8825;48.086;16.426;2023-11-19T13:05:32;8.50;76.80
17415;DHT22;8825;48.086;16.426;2023-11-19T13:08:07;8.50;76.60
17415;DHT22;8825;48.086;16.426;2023-11-19T13:10:52;8.50;76.80
17415;DHT22;8825;48.086;16.426;2023-11-19T13:13:22;8.50;76.80
17415;DHT22;8825;48.086;16.426;2023-11-19T13:15:50;8.50;76.80
17415;DHT22;8825;48.086;16.426;2023-11-19T13:18:17;8.50;76.90
17415;DHT22;8825;48.086;16.426;2023-11-19T13:20:45;8.60;77.10
17415;DHT22;8825;48.086;16.426;2023-11-19T13:23:13;8.70;77.20
17415;DHT22;8825;48.086;16.426;2023-11-19T13:25:41;8.70;77.10
17415;DHT22;8825;48.086;16.426;2023-11-19T13:28:10;8.70;77.00
17415;DHT22;8825;48.086;16.426;2023-11-19T13:30:37;8.80;77.20
17415;DHT22;8825;48.086;16.426;2023-11-19T13:33:05;8.80;77.10
17415;DHT22;8825;48.086;16.426;2023-11-19T13:35:32;8.90;77.30
17415;DHT22;8825;48.086;16.426;2023-11-19T13:38:00;9.00;77.30
17415;DHT22;8825;48.086;16.426;2023-11-19T13:40:28;9.00;77.10
17415;DHT22;8825;48.086;16.426;2023-11-19T13:42:55;9.00;77.00
17415;DHT22;8825;48.086;16.426;2023-11-19T13:45:23;9.00;77.10
17415;DHT22;8825;48.086;16.426;2023-11-19T13:47:50;9.00;77.10
17415;DHT22;8825;48.086;16.426;2023-11-19T13:50:18;9.10;77.20
17415;DHT22;8825;48.086;16.426;2023-11-19T13:52:46;9.10;77.20
17415;DHT22;8825;48.086;16.426;2023-11-19T13:55:14;9.20;77.10
17415;DHT22;8825;48.086;16.426;2023-11-19T13:57:42;9.30;77.00
17415;DHT22;8825;48.086;16.426;2023-11-19T14:00:11;9.30;77.00
17415;DHT22;8825;48.086;16.426;2023-11-19T14:02:43;9.40;76.90
17415;DHT22;8825;48.086;16.426;2023-11-19T14:05:10;9.40;76.80
17415;DHT22;8825;48.086;16.426;2023-11-19T14:07:38;9.40;76.50
17415;DHT22;8825;48.086;16.426;2023-11-19T14:10:08;9.30;76.40
17415;DHT22;8825;48.086;16.426;2023-11-19T14:12:38;9.20;76.50
17415;DHT22;8825;48.086;16.426;2023-11-19T14:15:07;9.20;76.50
17415;DHT22;8825;48.086;16.426;2023-11-19T14:17:37;9.20;76.50
17415;DHT22;8825;48.086;16.426;2023-11-19T14:20:05;9.20;77.10
17415;DHT22;8825;48.086;16.426;2023-11-19T14:22:43;9.10;76.60
17415;DHT22;8825;48.086;16.426;2023-11-19T14:25:07;9.10;76.40
17415;DHT22;8825;48.086;16.426;2023-11-19T14:27:43;9.10;76.60
17415;DHT22;8825;48.086;16.426;2023-11-19T14:30:08;9.00;76.50
17415;DHT22;8825;48.086;16.426;2023-11-19T14:32:39;9.00;76.70
17415;DHT22;8825;48.086;16.426;2023-11-19T14:35:07;9.00;76.70
17415;DHT22;8825;48.086;16.426;2023-11-19T14:37:35;9.00;76.70
17415;DHT22;8825;48.086;16.426;2023-11-19T14:40:03;9.00;76.70
17415;DHT22;8825;48.086;16.426;2023-11-19T14:42:32;9.00;76.70
17415;DHT22;8825;48.086;16.426;2023-11-19T14:45:00;9.00;76.70
17415;DHT22;8825;48.086;16.426;2023-11-19T14:47:27;8.90;76.80
17415;DHT22;8825;48.086;16.426;2023-11-19T14:49:55;8.80;77.00
17415;DHT22;8825;48.086;16.426;2023-11-19T14:52:23;8.70;77.70
17415;DHT22;8825;48.086;16.426;2023-11-19T14:54:50;8.70;78.10
17415;DHT22;8825;48.086;16.426;2023-11-19T14:57:20;8.60;78.00
17415;DHT22;8825;48.086;16.426;2023-11-19T14:59:47;8.50;78.30
17415;DHT22;8825;48.086;16.426;2023-11-19T15:02:15;8.40;78.70
17415;DHT22;8825;48.086;16.426;2023-11-19T15:04:42;8.40;78.90
17415;DHT22;8825;48.086;16.426;2023-11-19T15:07:10;8.40;79.10
17415;DHT22;8825;48.086;16.426;2023-11-19T15:09:38;8.40;79.30
17415;DHT22;8825;48.086;16.426;2023-11-19T15:12:06;8.40;79.20
17415;DHT22;8825;48.086;16.426;2023-11-19T15:14:33;8.50;79.20
17415;DHT22;8825;48.086;16.426;2023-11-19T15:17:01;8.50;79.20
17415;DHT22;8825;48.086;16.426;2023-11-19T15:19:29;8.50;79.20
17415;DHT22;8825;48.086;16.426;2023-11-19T15:21:56;8.50;79.30
17415;DHT22;8825;48.086;16.426;2023-11-19T15:24:24;8.40;79.60
17415;DHT22;8825;48.086;16.426;2023-11-19T15:26:52;8.40;80.00
17415;DHT22;8825;48.086;16.426;2023-11-19T15:29:19;8.40;79.70
17415;DHT22;8825;48.086;16.426;2023-11-19T15:31:47;8.40;79.80
17415;DHT22;8825;48.086;16.426;2023-11-19T15:34:14;8.40;79.80
17415;DHT22;8825;48.086;16.426;2023-11-19T15:36:42;8.40;79.80
17415;DHT22;8825;48.086;16.426;2023-11-19T15:39:09;8.50;79.80
17415;DHT22;8825;48.086;16.426;2023-11-19T15:41:39;8.50;79.80
17415;DHT22;8825;48.086;16.426;2023-11-19T15:44:06;8.50;79.70
17415;DHT22;8825;48.086;16.426;2023-11-19T15:46:34;8.50;79.60
17415;DHT22;8825;48.086;16.426;2023-11-19T15:49:02;8.50;79.60
17415;DHT22;8825;48.086;16.426;2023-11-19T15:51:29;8.40;79.50
17415;DHT22;8825;48.086;16.426;2023-11-19T15:53:57;8.40;79.60
17415;DHT22;8825;48.086;16.426;2023-11-19T15:56:24;8.50;79.50
17415;DHT22;8825;48.086;16.426;2023-11-19T15:58:52;8.50;79.50
17415;DHT22;8825;48.086;16.426;2023-11-19T16:01:20;8.40;79.20
17415;DHT22;8825;48.086;16.426;2023-11-19T16:03:47;8.40;79.30
17415;DHT22;8825;48.086;16.426;2023-11-19T16:06:15;8.40;79.30
17415;DHT22;8825;48.086;16.426;2023-11-19T16:08:42;8.30;79.30
17415;DHT22;8825;48.086;16.426;2023-11-19T16:11:10;8.30;79.10
17415;DHT22;8825;48.086;16.426;2023-11-19T16:13:39;8.30;79.20
17415;DHT22;8825;48.086;16.426;2023-11-19T16:16:07;8.20;79.20